sensor_id;sensor_type;location;lat;lon;timestamp;P1;durP1;ratioP1;P2;durP2;ratioP2
52614;SDS011;38508;53.158;6.614;2023-04-12T00:00:33;10.13;;;1.80;;
52614;SDS011;38508;53.158;6.614;2023-04-12T00:02:59;10.48;;;1.80;;
52614;SDS011;38508;53.158;6.614;2023-04-12T00:05:27;8.48;;;1.80;;
52614;SDS011;38508;53.158;6.614;2023-04-12T00:07:54;11.40;;;2.17;;
52614;SDS011;38508;53.158;6.614;2023-04-12T00:10:20;10.60;;;2.10;;
52614;SDS011;38508;53.158;6.614;2023-04-12T00:12:46;7.15;;;1.88;;
52614;SDS011;38508;53.158;6.614;2023-04-12T00:15:13;9.02;;;1.92;;
52614;SDS011;38508;53.158;6.614;2023-04-12T00:17:39;10.40;;;1.83;;
52614;SDS011;38508;53.158;6.614;2023-04-12T00:20:05;10.27;;;1.70;;
52614;SDS011;38508;53.158;6.614;2023-04-12T00:22:36;12.07;;;2.55;;
52614;SDS011;38508;53.158;6.614;2023-04-12T00:25:08;13.68;;;2.08;;
52614;SDS011;38508;53.158;6.614;2023-04-12T00:27:34;11.07;;;1.80;;
52614;SDS011;38508;53.158;6.614;2023-04-12T00:30:00;12.95;;;2.13;;
52614;SDS011;38508;53.158;6.614;2023-04-12T00:32:27;9.60;;;2.00;;
52614;SDS011;38508;53.158;6.614;2023-04-12T00:34:53;11.98;;;2.00;;
52614;SDS011;38508;53.158;6.614;2023-04-12T00:37:18;8.43;;;1.90;;
52614;SDS011;38508;53.158;6.614;2023-04-12T00:39:44;10.57;;;2.40;;
52614;SDS011;38508;53.158;6.614;2023-04-12T00:42:10;9.98;;;1.80;;
52614;SDS011;38508;53.158;6.614;2023-04-12T00:44:36;7.70;;;2.08;;
52614;SDS011;38508;53.158;6.614;2023-04-12T00:47:02;12.32;;;2.22;;
52614;SDS011;38508;53.158;6.614;2023-04-12T00:49:29;15.23;;;2.30;;
52614;SDS011;38508;53.158;6.614;2023-04-12T00:52:14;13.38;;;2.15;;
52614;SDS011;38508;53.158;6.614;2023-04-12T00:54:42;12.35;;;1.70;;
52614;SDS011;38508;53.158;6.614;2023-04-12T00:57:08;9.02;;;1.73;;
52614;SDS011;38508;53.158;6.614;2023-04-12T00:59:34;12.15;;;2.22;;
52614;SDS011;38508;53.158;6.614;2023-04-12T01:02:00;12.82;;;2.00;;
52614;SDS011;38508;53.158;6.614;2023-04-12T01:04:26;11.73;;;1.92;;
52614;SDS011;38508;53.158;6.614;2023-04-12T01:15:26;13.40;;;2.30;;
52614;SDS011;38508;53.158;6.614;2023-04-12T01:17:58;7.95;;;1.75;;
52614;SDS011;38508;53.158;6.614;2023-04-12T01:20:30;14.38;;;2.25;;
52614;SDS011;38508;53.158;6.614;2023-04-12T01:26:08;9.57;;;1.77;;
52614;SDS011;38508;53.158;6.614;2023-04-12T01:28:57;10.50;;;1.90;;
52614;SDS011;38508;53.158;6.614;2023-04-12T01:31:25;16.42;;;2.20;;
52614;SDS011;38508;53.158;6.614;2023-04-12T01:33:53;9.35;;;1.83;;
52614;SDS011;38508;53.158;6.614;2023-04-12T01:36:21;11.13;;;2.00;;
52614;SDS011;38508;53.158;6.614;2023-04-12T01:38:50;10.90;;;1.67;;
52614;SDS011;38508;53.158;6.614;2023-04-12T01:41:16;10.68;;;1.70;;
52614;SDS011;38508;53.158;6.614;2023-04-12T01:43:43;9.35;;;1.77;;
52614;SDS011;38508;53.158;6.614;2023-04-12T01:46:10;13.05;;;2.40;;
52614;SDS011;38508;53.158;6.614;2023-04-12T01:48:38;11.93;;;2.00;;
52614;SDS011;38508;53.158;6.614;2023-04-12T01:51:35;15.60;;;1.95;;
52614;SDS011;38508;53.158;6.614;2023-04-12T01:54:04;9.98;;;2.00;;
52614;SDS011;38508;53.158;6.614;2023-04-12T01:56:36;9.05;;;2.38;;
52614;SDS011;38508;53.158;6.614;2023-04-12T01:59:04;9.07;;;2.10;;
52614;SDS011;38508;53.158;6.614;2023-04-12T02:01:30;12.63;;;1.77;;
52614;SDS011;38508;53.158;6.614;2023-04-12T02:03:56;8.15;;;1.90;;
52614;SDS011;38508;53.158;6.614;2023-04-12T02:06:24;8.23;;;2.08;;
52614;SDS011;38508;53.158;6.614;2023-04-12T02:09:01;11.93;;;3.28;;
52614;SDS011;38508;53.158;6.614;2023-04-12T02:13:53;12.70;;;2.83;;
52614;SDS011;38508;53.158;6.614;2023-04-12T02:16:19;11.40;;;1.90;;
52614;SDS011;38508;53.158;6.614;2023-04-12T02:18:47;14.23;;;2.53;;
52614;SDS011;38508;53.158;6.614;2023-04-12T02:21:16;12.10;;;2.15;;
52614;SDS011;38508;53.158;6.614;2023-04-12T02:23:42;9.55;;;2.25;;
52614;SDS011;38508;53.158;6.614;2023-04-12T02:26:11;15.73;;;2.55;;
52614;SDS011;38508;53.158;6.614;2023-04-12T02:28:37;8.50;;;2.00;;
52614;SDS011;38508;53.158;6.614;2023-04-12T02:31:04;9.43;;;2.20;;
52614;SDS011;38508;53.158;6.614;2023-04-12T02:33:32;9.05;;;2.10;;
52614;SDS011;38508;53.158;6.614;2023-04-12T02:35:59;17.27;;;2.28;;
52614;SDS011;38508;53.158;6.614;2023-04-12T02:38:26;7.47;;;1.88;;
52614;SDS011;38508;53.158;6.614;2023-04-12T02:40:53;14.63;;;2.25;;
52614;SDS011;38508;53.158;6.614;2023-04-12T02:43:19;8.95;;;2.05;;
52614;SDS011;38508;53.158;6.614;2023-04-12T02:45:45;6.95;;;2.05;;
52614;SDS011;38508;53.158;6.614;2023-04-12T02:48:12;8.65;;;1.90;;
52614;SDS011;38508;53.158;6.614;2023-04-12T02:50:37;9.73;;;1.80;;
52614;SDS011;38508;53.158;6.614;2023-04-12T02:53:03;8.73;;;2.20;;
52614;SDS011;38508;53.158;6.614;2023-04-12T02:55:29;9.30;;;1.98;;
52614;SDS011;38508;53.158;6.614;2023-04-12T02:57:55;10.50;;;2.10;;
52614;SDS011;38508;53.158;6.614;2023-04-12T03:00:21;10.10;;;2.13;;
52614;SDS011;38508;53.158;6.614;2023-04-12T03:02:48;5.47;;;2.00;;
52614;SDS011;38508;53.158;6.614;2023-04-12T03:05:15;10.90;;;2.10;;
52614;SDS011;38508;53.158;6.614;2023-04-12T03:07:41;9.73;;;2.55;;
52614;SDS011;38508;53.158;6.614;2023-04-12T03:10:07;9.98;;;1.70;;
52614;SDS011;38508;53.158;6.614;2023-04-12T03:12:35;9.65;;;1.70;;
52614;SDS011;38508;53.158;6.614;2023-04-12T03:15:01;11.98;;;2.15;;
52614;SDS011;38508;53.158;6.614;2023-04-12T03:17:27;11.52;;;1.80;;
52614;SDS011;38508;53.158;6.614;2023-04-12T03:19:53;5.93;;;1.73;;
52614;SDS011;38508;53.158;6.614;2023-04-12T03:22:19;10.02;;;1.65;;
52614;SDS011;38508;53.158;6.614;2023-04-12T03:24:46;7.78;;;2.03;;
52614;SDS011;38508;53.158;6.614;2023-04-12T03:27:13;9.82;;;1.50;;
52614;SDS011;38508;53.158;6.614;2023-04-12T03:29:39;6.45;;;1.45;;
52614;SDS011;38508;53.158;6.614;2023-04-12T03:32:04;6.78;;;1.70;;
52614;SDS011;38508;53.158;6.614;2023-04-12T03:34:30;9.07;;;1.50;;
52614;SDS011;38508;53.158;6.614;2023-04-12T03:36:56;6.28;;;1.35;;
52614;SDS011;38508;53.158;6.614;2023-04-12T03:39:23;11.10;;;1.65;;
52614;SDS011;38508;53.158;6.614;2023-04-12T03:41:48;6.90;;;1.40;;
52614;SDS011;38508;53.158;6.614;2023-04-12T03:44:14;8.82;;;1.27;;
52614;SDS011;38508;53.158;6.614;2023-04-12T03:46:40;5.35;;;1.30;;
52614;SDS011;38508;53.158;6.614;2023-04-12T03:49:06;5.63;;;1.20;;
52614;SDS011;38508;53.158;6.614;2023-04-12T03:51:32;7.00;;;1.38;;
52614;SDS011;38508;53.158;6.614;2023-04-12T03:53:57;4.63;;;1.20;;
52614;SDS011;38508;53.158;6.614;2023-04-12T03:56:23;5.50;;;1.30;;
52614;SDS011;38508;53.158;6.614;2023-04-12T03:58:49;7.25;;;1.20;;
52614;SDS011;38508;53.158;6.614;2023-04-12T04:01:15;7.25;;;1.63;;
52614;SDS011;38508;53.158;6.614;2023-04-12T04:03:42;7.22;;;1.70;;
52614;SDS011;38508;53.158;6.614;2023-04-12T04:06:08;7.30;;;1.40;;
52614;SDS011;38508;53.158;6.614;2023-04-12T04:08:35;6.38;;;1.30;;
52614;SDS011;38508;53.158;6.614;2023-04-12T04:11:01;6.13;;;1.38;;
52614;SDS011;38508;53.158;6.614;2023-04-12T04:13:27;9.10;;;1.83;;
52614;SDS011;38508;53.158;6.614;2023-04-12T04:16:01;13.25;;;1.77;;
52614;SDS011;38508;53.158;6.614;2023-04-12T04:18:29;7.00;;;1.60;;
52614;SDS011;38508;53.158;6.614;2023-04-12T04:20:55;10.90;;;1.60;;
52614;SDS011;38508;53.158;6.614;2023-04-12T04:23:21;6.57;;;1.73;;
52614;SDS011;38508;53.158;6.614;2023-04-12T04:25:47;5.43;;;1.75;;
52614;SDS011;38508;53.158;6.614;2023-04-12T04:28:13;7.55;;;2.20;;
52614;SDS011;38508;53.158;6.614;2023-04-12T04:30:40;6.75;;;1.70;;
52614;SDS011;38508;53.158;6.614;2023-04-12T04:33:06;8.73;;;1.90;;
52614;SDS011;38508;53.158;6.614;2023-04-12T04:35:32;5.18;;;1.77;;
52614;SDS011;38508;53.158;6.614;2023-04-12T04:37:58;12.35;;;2.47;;
52614;SDS011;38508;53.158;6.614;2023-04-12T04:40:25;7.15;;;2.10;;
52614;SDS011;38508;53.158;6.614;2023-04-12T04:42:51;8.23;;;2.25;;
52614;SDS011;38508;53.158;6.614;2023-04-12T04:45:23;9.88;;;2.40;;
52614;SDS011;38508;53.158;6.614;2023-04-12T04:47:51;9.43;;;2.20;;
52614;SDS011;38508;53.158;6.614;2023-04-12T04:50:20;10.45;;;2.25;;
52614;SDS011;38508;53.158;6.614;2023-04-12T04:52:47;9.52;;;2.33;;
52614;SDS011;38508;53.158;6.614;2023-04-12T04:55:16;8.98;;;2.22;;
52614;SDS011;38508;53.158;6.614;2023-04-12T04:57:42;10.80;;;2.20;;
52614;SDS011;38508;53.158;6.614;2023-04-12T05:00:08;8.63;;;2.33;;
52614;SDS011;38508;53.158;6.614;2023-04-12T05:02:38;9.43;;;2.63;;
52614;SDS011;38508;53.158;6.614;2023-04-12T05:05:09;11.15;;;2.50;;
52614;SDS011;38508;53.158;6.614;2023-04-12T05:07:39;9.25;;;2.65;;
52614;SDS011;38508;53.158;6.614;2023-04-12T05:10:07;7.97;;;2.40;;
52614;SDS011;38508;53.158;6.614;2023-04-12T05:12:34;12.05;;;2.63;;
52614;SDS011;38508;53.158;6.614;2023-04-12T05:15:01;9.43;;;3.38;;
52614;SDS011;38508;53.158;6.614;2023-04-12T05:17:27;10.10;;;3.22;;
52614;SDS011;38508;53.158;6.614;2023-04-12T05:19:53;7.50;;;2.67;;
52614;SDS011;38508;53.158;6.614;2023-04-12T05:22:19;8.43;;;2.60;;
52614;SDS011;38508;53.158;6.614;2023-04-12T05:24:46;11.20;;;3.00;;
52614;SDS011;38508;53.158;6.614;2023-04-12T05:27:12;12.18;;;3.30;;
52614;SDS011;38508;53.158;6.614;2023-04-12T05:29:40;8.13;;;2.72;;
52614;SDS011;38508;53.158;6.614;2023-04-12T05:32:06;10.23;;;2.95;;
52614;SDS011;38508;53.158;6.614;2023-04-12T05:34:32;7.93;;;2.85;;
52614;SDS011;38508;53.158;6.614;2023-04-12T05:36:58;12.60;;;3.20;;
52614;SDS011;38508;53.158;6.614;2023-04-12T05:39:24;16.65;;;3.30;;
52614;SDS011;38508;53.158;6.614;2023-04-12T05:41:50;9.23;;;3.10;;
52614;SDS011;38508;53.158;6.614;2023-04-12T05:44:16;13.95;;;3.50;;
52614;SDS011;38508;53.158;6.614;2023-04-12T05:46:42;17.65;;;2.92;;
52614;SDS011;38508;53.158;6.614;2023-04-12T05:49:08;10.63;;;3.70;;
52614;SDS011;38508;53.158;6.614;2023-04-12T05:51:33;8.88;;;2.80;;
52614;SDS011;38508;53.158;6.614;2023-04-12T05:53:59;8.95;;;3.15;;
52614;SDS011;38508;53.158;6.614;2023-04-12T05:56:25;13.90;;;3.50;;
52614;SDS011;38508;53.158;6.614;2023-04-12T05:58:51;12.25;;;3.00;;
52614;SDS011;38508;53.158;6.614;2023-04-12T06:01:17;7.38;;;2.85;;
52614;SDS011;38508;53.158;6.614;2023-04-12T06:03:44;10.45;;;3.00;;
52614;SDS011;38508;53.158;6.614;2023-04-12T06:06:10;8.98;;;2.63;;
52614;SDS011;38508;53.158;6.614;2023-04-12T06:08:36;5.15;;;2.72;;
52614;SDS011;38508;53.158;6.614;2023-04-12T06:11:05;10.73;;;2.80;;
52614;SDS011;38508;53.158;6.614;2023-04-12T06:13:32;11.07;;;3.00;;
52614;SDS011;38508;53.158;6.614;2023-04-12T06:15:58;11.15;;;2.60;;
52614;SDS011;38508;53.158;6.614;2023-04-12T06:18:23;10.20;;;2.95;;
52614;SDS011;38508;53.158;6.614;2023-04-12T06:20:49;6.57;;;2.75;;
52614;SDS011;38508;53.158;6.614;2023-04-12T06:23:15;8.73;;;2.42;;
52614;SDS011;38508;53.158;6.614;2023-04-12T06:25:43;8.27;;;2.63;;
52614;SDS011;38508;53.158;6.614;2023-04-12T06:28:09;7.10;;;2.63;;
52614;SDS011;38508;53.158;6.614;2023-04-12T06:30:34;11.50;;;3.30;;
52614;SDS011;38508;53.158;6.614;2023-04-12T06:33:00;9.38;;;3.10;;
52614;SDS011;38508;53.158;6.614;2023-04-12T06:35:26;7.05;;;2.60;;
52614;SDS011;38508;53.158;6.614;2023-04-12T06:37:51;11.00;;;3.25;;
52614;SDS011;38508;53.158;6.614;2023-04-12T06:40:17;8.43;;;2.60;;
52614;SDS011;38508;53.158;6.614;2023-04-12T06:42:42;7.38;;;2.38;;
52614;SDS011;38508;53.158;6.614;2023-04-12T06:45:08;10.35;;;2.85;;
52614;SDS011;38508;53.158;6.614;2023-04-12T06:47:35;11.00;;;3.30;;
52614;SDS011;38508;53.158;6.614;2023-04-12T06:50:00;6.85;;;2.60;;
52614;SDS011;38508;53.158;6.614;2023-04-12T06:52:27;10.05;;;3.10;;
52614;SDS011;38508;53.158;6.614;2023-04-12T06:54:53;6.85;;;2.63;;
52614;SDS011;38508;53.158;6.614;2023-04-12T06:57:20;9.73;;;3.40;;
52614;SDS011;38508;53.158;6.614;2023-04-12T06:59:46;9.98;;;3.30;;
52614;SDS011;38508;53.158;6.614;2023-04-12T07:02:11;9.43;;;3.25;;
52614;SDS011;38508;53.158;6.614;2023-04-12T07:04:37;7.55;;;3.17;;
52614;SDS011;38508;53.158;6.614;2023-04-12T07:07:03;6.72;;;2.90;;
52614;SDS011;38508;53.158;6.614;2023-04-12T07:09:31;8.73;;;3.72;;
52614;SDS011;38508;53.158;6.614;2023-04-12T07:11:57;6.18;;;2.85;;
52614;SDS011;38508;53.158;6.614;2023-04-12T07:14:24;10.27;;;3.63;;
52614;SDS011;38508;53.158;6.614;2023-04-12T07:16:50;7.82;;;2.90;;
52614;SDS011;38508;53.158;6.614;2023-04-12T07:19:16;10.20;;;3.20;;
52614;SDS011;38508;53.158;6.614;2023-04-12T07:21:41;10.02;;;3.03;;
52614;SDS011;38508;53.158;6.614;2023-04-12T07:24:07;7.55;;;3.05;;
52614;SDS011;38508;53.158;6.614;2023-04-12T07:26:33;7.57;;;3.20;;
52614;SDS011;38508;53.158;6.614;2023-04-12T07:28:58;7.50;;;3.42;;
52614;SDS011;38508;53.158;6.614;2023-04-12T07:31:24;7.55;;;3.22;;
52614;SDS011;38508;53.158;6.614;2023-04-12T07:33:50;8.65;;;3.60;;
52614;SDS011;38508;53.158;6.614;2023-04-12T07:36:15;7.93;;;3.05;;
52614;SDS011;38508;53.158;6.614;2023-04-12T07:38:45;5.40;;;3.42;;
52614;SDS011;38508;53.158;6.614;2023-04-12T07:41:10;9.45;;;3.10;;
52614;SDS011;38508;53.158;6.614;2023-04-12T07:43:36;10.88;;;3.67;;
52614;SDS011;38508;53.158;6.614;2023-04-12T07:46:02;6.90;;;3.03;;
52614;SDS011;38508;53.158;6.614;2023-04-12T07:48:31;9.27;;;4.43;;
52614;SDS011;38508;53.158;6.614;2023-04-12T07:50:57;5.72;;;2.78;;
52614;SDS011;38508;53.158;6.614;2023-04-12T07:53:23;5.80;;;3.00;;
52614;SDS011;38508;53.158;6.614;2023-04-12T07:55:50;5.50;;;3.63;;
52614;SDS011;38508;53.158;6.614;2023-04-12T07:58:17;6.13;;;3.88;;
52614;SDS011;38508;53.158;6.614;2023-04-12T08:00:43;10.73;;;4.72;;
52614;SDS011;38508;53.158;6.614;2023-04-12T08:03:10;10.32;;;4.10;;
52614;SDS011;38508;53.158;6.614;2023-04-12T08:05:37;13.98;;;4.20;;
52614;SDS011;38508;53.158;6.614;2023-04-12T08:08:03;5.53;;;3.42;;
52614;SDS011;38508;53.158;6.614;2023-04-12T08:10:29;8.65;;;4.40;;
52614;SDS011;38508;53.158;6.614;2023-04-12T08:12:55;7.93;;;3.80;;
52614;SDS011;38508;53.158;6.614;2023-04-12T08:15:21;12.88;;;4.72;;
52614;SDS011;38508;53.158;6.614;2023-04-12T08:17:46;9.52;;;4.60;;
52614;SDS011;38508;53.158;6.614;2023-04-12T08:20:12;8.77;;;4.45;;
52614;SDS011;38508;53.158;6.614;2023-04-12T08:22:40;7.25;;;3.67;;
52614;SDS011;38508;53.158;6.614;2023-04-12T08:25:06;6.72;;;3.70;;
52614;SDS011;38508;53.158;6.614;2023-04-12T08:27:33;8.23;;;4.30;;
52614;SDS011;38508;53.158;6.614;2023-04-12T08:29:58;8.90;;;4.10;;
52614;SDS011;38508;53.158;6.614;2023-04-12T08:32:24;10.15;;;4.90;;
52614;SDS011;38508;53.158;6.614;2023-04-12T08:34:50;6.28;;;3.78;;
52614;SDS011;38508;53.158;6.614;2023-04-12T08:37:16;5.82;;;3.78;;
52614;SDS011;38508;53.158;6.614;2023-04-12T08:39:42;6.68;;;3.30;;
52614;SDS011;38508;53.158;6.614;2023-04-12T08:42:08;8.93;;;3.97;;
52614;SDS011;38508;53.158;6.614;2023-04-12T08:44:35;5.35;;;3.75;;
52614;SDS011;38508;53.158;6.614;2023-04-12T08:47:05;6.93;;;3.78;;
52614;SDS011;38508;53.158;6.614;2023-04-12T08:49:33;7.45;;;3.50;;
52614;SDS011;38508;53.158;6.614;2023-04-12T08:52:01;6.38;;;3.88;;
52614;SDS011;38508;53.158;6.614;2023-04-12T08:54:31;5.18;;;4.25;;
52614;SDS011;38508;53.158;6.614;2023-04-12T08:56:58;7.57;;;4.82;;
52614;SDS011;38508;53.158;6.614;2023-04-12T08:59:29;5.72;;;4.50;;
52614;SDS011;38508;53.158;6.614;2023-04-12T09:01:55;5.60;;;4.07;;
52614;SDS011;38508;53.158;6.614;2023-04-12T09:04:22;7.55;;;4.70;;
52614;SDS011;38508;53.158;6.614;2023-04-12T09:06:49;5.70;;;4.22;;
52614;SDS011;38508;53.158;6.614;2023-04-12T09:09:14;8.25;;;3.85;;
52614;SDS011;38508;53.158;6.614;2023-04-12T09:11:40;5.78;;;3.85;;
52614;SDS011;38508;53.158;6.614;2023-04-12T09:14:22;4.85;;;3.53;;
52614;SDS011;38508;53.158;6.614;2023-04-12T09:16:50;5.32;;;4.78;;
52614;SDS011;38508;53.158;6.614;2023-04-12T09:19:22;7.20;;;4.75;;
52614;SDS011;38508;53.158;6.614;2023-04-12T09:21:58;7.75;;;4.93;;
52614;SDS011;38508;53.158;6.614;2023-04-12T09:24:24;7.07;;;5.38;;
52614;SDS011;38508;53.158;6.614;2023-04-12T09:27:03;7.03;;;5.60;;
52614;SDS011;38508;53.158;6.614;2023-04-12T09:29:30;8.75;;;5.80;;
52614;SDS011;38508;53.158;6.614;2023-04-12T09:32:03;4.25;;;3.38;;
52614;SDS011;38508;53.158;6.614;2023-04-12T09:34:30;8.18;;;4.90;;
52614;SDS011;38508;53.158;6.614;2023-04-12T09:36:57;7.68;;;5.43;;
52614;SDS011;38508;53.158;6.614;2023-04-12T09:39:29;7.72;;;5.13;;
52614;SDS011;38508;53.158;6.614;2023-04-12T09:42:10;7.97;;;5.45;;
52614;SDS011;38508;53.158;6.614;2023-04-12T09:44:38;6.40;;;5.80;;
52614;SDS011;38508;53.158;6.614;2023-04-12T09:47:04;9.30;;;7.15;;
52614;SDS011;38508;53.158;6.614;2023-04-12T09:49:36;8.13;;;6.75;;
52614;SDS011;38508;53.158;6.614;2023-04-12T09:52:07;10.65;;;7.40;;
52614;SDS011;38508;53.158;6.614;2023-04-12T09:54:40;8.35;;;7.05;;
52614;SDS011;38508;53.158;6.614;2023-04-12T09:57:08;7.95;;;6.68;;
52614;SDS011;38508;53.158;6.614;2023-04-12T09:59:37;11.77;;;7.78;;
52614;SDS011;38508;53.158;6.614;2023-04-12T10:02:15;8.88;;;7.72;;
52614;SDS011;38508;53.158;6.614;2023-04-12T10:04:44;8.70;;;7.75;;
52614;SDS011;38508;53.158;6.614;2023-04-12T10:07:12;8.80;;;7.60;;
52614;SDS011;38508;53.158;6.614;2023-04-12T10:09:38;11.23;;;7.85;;
52614;SDS011;38508;53.158;6.614;2023-04-12T10:12:04;12.15;;;8.15;;
52614;SDS011;38508;53.158;6.614;2023-04-12T10:14:31;11.60;;;7.22;;
52614;SDS011;38508;53.158;6.614;2023-04-12T10:16:57;8.20;;;7.20;;
52614;SDS011;38508;53.158;6.614;2023-04-12T10:19:24;10.38;;;8.40;;
52614;SDS011;38508;53.158;6.614;2023-04-12T10:21:51;9.10;;;7.20;;
52614;SDS011;38508;53.158;6.614;2023-04-12T10:24:19;14.35;;;7.70;;
52614;SDS011;38508;53.158;6.614;2023-04-12T10:26:47;12.10;;;7.15;;
52614;SDS011;38508;53.158;6.614;2023-04-12T10:29:21;11.75;;;6.85;;
52614;SDS011;38508;53.158;6.614;2023-04-12T10:31:49;12.35;;;6.93;;
52614;SDS011;38508;53.158;6.614;2023-04-12T10:34:15;10.45;;;6.50;;
52614;SDS011;38508;53.158;6.614;2023-04-12T10:36:54;13.80;;;6.93;;
52614;SDS011;38508;53.158;6.614;2023-04-12T10:39:42;10.00;;;5.95;;
52614;SDS011;38508;53.158;6.614;2023-04-12T10:44:43;8.85;;;5.22;;
52614;SDS011;38508;53.158;6.614;2023-04-12T10:47:09;8.77;;;5.35;;
52614;SDS011;38508;53.158;6.614;2023-04-12T10:49:35;8.35;;;5.30;;
52614;SDS011;38508;53.158;6.614;2023-04-12T10:54:33;11.25;;;4.47;;
52614;SDS011;38508;53.158;6.614;2023-04-12T10:56:59;15.10;;;4.90;;
52614;SDS011;38508;53.158;6.614;2023-04-12T10:59:49;10.52;;;4.95;;
52614;SDS011;38508;53.158;6.614;2023-04-12T11:02:20;12.43;;;3.63;;
52614;SDS011;38508;53.158;6.614;2023-04-12T11:07:40;10.82;;;3.22;;
52614;SDS011;38508;53.158;6.614;2023-04-12T11:12:40;16.27;;;3.55;;
52614;SDS011;38508;53.158;6.614;2023-04-12T11:15:12;15.32;;;3.20;;
52614;SDS011;38508;53.158;6.614;2023-04-12T11:17:38;13.18;;;2.92;;
52614;SDS011;38508;53.158;6.614;2023-04-12T11:20:04;10.23;;;2.70;;
52614;SDS011;38508;53.158;6.614;2023-04-12T11:22:34;11.32;;;2.70;;
52614;SDS011;38508;53.158;6.614;2023-04-12T11:25:02;12.52;;;3.20;;
52614;SDS011;38508;53.158;6.614;2023-04-12T11:27:28;9.10;;;2.58;;
52614;SDS011;38508;53.158;6.614;2023-04-12T11:29:56;8.20;;;2.63;;
52614;SDS011;38508;53.158;6.614;2023-04-12T11:32:25;11.30;;;2.67;;
52614;SDS011;38508;53.158;6.614;2023-04-12T11:34:55;10.00;;;3.20;;
52614;SDS011;38508;53.158;6.614;2023-04-12T11:37:22;9.88;;;2.83;;
52614;SDS011;38508;53.158;6.614;2023-04-12T11:39:51;10.73;;;3.95;;
52614;SDS011;38508;53.158;6.614;2023-04-12T11:42:18;10.63;;;2.55;;
52614;SDS011;38508;53.158;6.614;2023-04-12T11:44:46;10.40;;;2.53;;
52614;SDS011;38508;53.158;6.614;2023-04-12T11:47:16;8.05;;;2.13;;
52614;SDS011;38508;53.158;6.614;2023-04-12T11:49:46;9.65;;;2.10;;
52614;SDS011;38508;53.158;6.614;2023-04-12T11:52:14;7.15;;;1.88;;
52614;SDS011;38508;53.158;6.614;2023-04-12T11:54:44;10.75;;;1.67;;
52614;SDS011;38508;53.158;6.614;2023-04-12T11:57:12;13.35;;;2.33;;
52614;SDS011;38508;53.158;6.614;2023-04-12T11:59:38;13.77;;;1.63;;
52614;SDS011;38508;53.158;6.614;2023-04-12T12:02:07;16.77;;;2.55;;
52614;SDS011;38508;53.158;6.614;2023-04-12T12:04:33;10.73;;;1.88;;
52614;SDS011;38508;53.158;6.614;2023-04-12T12:06:59;12.02;;;2.22;;
52614;SDS011;38508;53.158;6.614;2023-04-12T12:09:25;12.50;;;2.00;;
52614;SDS011;38508;53.158;6.614;2023-04-12T12:11:52;10.38;;;1.90;;
52614;SDS011;38508;53.158;6.614;2023-04-12T12:14:19;11.27;;;2.40;;
52614;SDS011;38508;53.158;6.614;2023-04-12T12:16:55;11.18;;;1.92;;
52614;SDS011;38508;53.158;6.614;2023-04-12T12:19:30;15.15;;;2.40;;
52614;SDS011;38508;53.158;6.614;2023-04-12T12:24:57;13.88;;;2.05;;
52614;SDS011;38508;53.158;6.614;2023-04-12T12:27:30;14.90;;;2.05;;
52614;SDS011;38508;53.158;6.614;2023-04-12T12:29:59;16.38;;;2.55;;
52614;SDS011;38508;53.158;6.614;2023-04-12T12:32:30;13.05;;;2.05;;
52614;SDS011;38508;53.158;6.614;2023-04-12T12:34:57;20.73;;;2.92;;
52614;SDS011;38508;53.158;6.614;2023-04-12T12:37:23;17.98;;;3.15;;
52614;SDS011;38508;53.158;6.614;2023-04-12T12:40:06;16.60;;;2.47;;
52614;SDS011;38508;53.158;6.614;2023-04-12T12:42:43;16.90;;;3.30;;
52614;SDS011;38508;53.158;6.614;2023-04-12T12:45:09;15.57;;;2.10;;
52614;SDS011;38508;53.158;6.614;2023-04-12T12:47:44;18.25;;;2.17;;
52614;SDS011;38508;53.158;6.614;2023-04-12T12:50:15;19.35;;;2.67;;
52614;SDS011;38508;53.158;6.614;2023-04-12T12:52:42;14.48;;;2.53;;
52614;SDS011;38508;53.158;6.614;2023-04-12T12:55:14;16.02;;;2.72;;
52614;SDS011;38508;53.158;6.614;2023-04-12T12:57:41;14.15;;;2.17;;
52614;SDS011;38508;53.158;6.614;2023-04-12T13:00:08;19.80;;;3.47;;
52614;SDS011;38508;53.158;6.614;2023-04-12T13:02:35;20.88;;;2.58;;
52614;SDS011;38508;53.158;6.614;2023-04-12T13:05:05;19.67;;;2.60;;
52614;SDS011;38508;53.158;6.614;2023-04-12T13:07:31;14.48;;;2.78;;
52614;SDS011;38508;53.158;6.614;2023-04-12T13:09:57;15.07;;;2.10;;
52614;SDS011;38508;53.158;6.614;2023-04-12T13:12:24;14.73;;;1.80;;
52614;SDS011;38508;53.158;6.614;2023-04-12T13:14:50;15.73;;;2.55;;
52614;SDS011;38508;53.158;6.614;2023-04-12T13:17:16;9.25;;;1.83;;
52614;SDS011;38508;53.158;6.614;2023-04-12T13:19:43;17.52;;;2.42;;
52614;SDS011;38508;53.158;6.614;2023-04-12T13:22:10;17.42;;;1.80;;
52614;SDS011;38508;53.158;6.614;2023-04-12T13:24:37;16.27;;;1.83;;
52614;SDS011;38508;53.158;6.614;2023-04-12T13:27:02;12.82;;;1.90;;
52614;SDS011;38508;53.158;6.614;2023-04-12T13:29:28;13.77;;;1.63;;
52614;SDS011;38508;53.158;6.614;2023-04-12T13:31:54;14.73;;;1.67;;
52614;SDS011;38508;53.158;6.614;2023-04-12T13:34:20;10.68;;;1.83;;
52614;SDS011;38508;53.158;6.614;2023-04-12T13:36:46;16.42;;;1.95;;
52614;SDS011;38508;53.158;6.614;2023-04-12T13:39:13;7.32;;;1.48;;
52614;SDS011;38508;53.158;6.614;2023-04-12T13:41:39;10.52;;;1.88;;
52614;SDS011;38508;53.158;6.614;2023-04-12T13:44:05;17.50;;;2.28;;
52614;SDS011;38508;53.158;6.614;2023-04-12T13:46:30;12.10;;;1.70;;
52614;SDS011;38508;53.158;6.614;2023-04-12T13:48:56;8.27;;;1.20;;
52614;SDS011;38508;53.158;6.614;2023-04-12T13:51:22;10.90;;;1.52;;
52614;SDS011;38508;53.158;6.614;2023-04-12T13:53:47;9.77;;;1.02;;
52614;SDS011;38508;53.158;6.614;2023-04-12T13:56:13;12.15;;;1.40;;
52614;SDS011;38508;53.158;6.614;2023-04-12T13:58:42;5.60;;;0.80;;
52614;SDS011;38508;53.158;6.614;2023-04-12T14:01:08;7.97;;;1.13;;
52614;SDS011;38508;53.158;6.614;2023-04-12T14:03:34;8.13;;;1.45;;
52614;SDS011;38508;53.158;6.614;2023-04-12T14:06:00;10.07;;;0.98;;
52614;SDS011;38508;53.158;6.614;2023-04-12T14:08:27;9.05;;;1.15;;
52614;SDS011;38508;53.158;6.614;2023-04-12T14:10:53;7.45;;;0.82;;
52614;SDS011;38508;53.158;6.614;2023-04-12T14:13:22;8.27;;;1.30;;
52614;SDS011;38508;53.158;6.614;2023-04-12T14:15:49;8.00;;;1.00;;
52614;SDS011;38508;53.158;6.614;2023-04-12T14:18:15;7.28;;;1.45;;
52614;SDS011;38508;53.158;6.614;2023-04-12T14:20:41;15.57;;;2.03;;
52614;SDS011;38508;53.158;6.614;2023-04-12T14:23:13;13.27;;;1.33;;
52614;SDS011;38508;53.158;6.614;2023-04-12T14:25:39;7.70;;;1.02;;
52614;SDS011;38508;53.158;6.614;2023-04-12T14:28:05;11.73;;;1.40;;
52614;SDS011;38508;53.158;6.614;2023-04-12T14:30:31;9.30;;;1.08;;
52614;SDS011;38508;53.158;6.614;2023-04-12T14:32:57;6.57;;;1.42;;
52614;SDS011;38508;53.158;6.614;2023-04-12T14:35:23;7.65;;;1.42;;
52614;SDS011;38508;53.158;6.614;2023-04-12T14:37:48;9.23;;;1.70;;
52614;SDS011;38508;53.158;6.614;2023-04-12T14:40:14;9.18;;;1.20;;
52614;SDS011;38508;53.158;6.614;2023-04-12T14:42:42;13.55;;;1.98;;
52614;SDS011;38508;53.158;6.614;2023-04-12T14:45:08;10.68;;;1.50;;
52614;SDS011;38508;53.158;6.614;2023-04-12T14:47:35;11.63;;;1.83;;
52614;SDS011;38508;53.158;6.614;2023-04-12T14:50:01;11.57;;;1.67;;
52614;SDS011;38508;53.158;6.614;2023-04-12T14:52:27;7.97;;;1.05;;
52614;SDS011;38508;53.158;6.614;2023-04-12T14:54:53;10.15;;;1.55;;
52614;SDS011;38508;53.158;6.614;2023-04-12T14:57:19;10.55;;;1.48;;
52614;SDS011;38508;53.158;6.614;2023-04-12T14:59:44;14.80;;;1.60;;
52614;SDS011;38508;53.158;6.614;2023-04-12T15:02:10;9.68;;;1.73;;
52614;SDS011;38508;53.158;6.614;2023-04-12T15:04:36;8.02;;;1.10;;
52614;SDS011;38508;53.158;6.614;2023-04-12T15:07:02;10.73;;;1.10;;
52614;SDS011;38508;53.158;6.614;2023-04-12T15:09:27;8.70;;;1.67;;